Bossier City, Louisiana
Current Conditions -  °F | °C
As of 5:53 AM on Friday 21 Nov 2014 (Local Time) from KDTN Reporting Station
Light Rain Light Rain  
Wind Chill: 53°   Ceiling: 5500
Heat Index: 53°   Visibility: 5mi
Dew Point: 51°   Wind: 13mph
Humidity: 93%   Direction: 150°SSE
Pressure: 30.18"   Gusts: NA
Location:  32.52°N, 93.73°W
Report Text: KDTN 211153Z AUTO 15011KT 5SM -RA BR OVC055 12/11 A3018 RMK AO2 SLP217 P0002 60005 70010 T01170106 10144 20117 53003
Loading
Personal Weather Stations






























Interactive Weather Map New forecast layout! Learn more

10-Day Weather Forecast

Advertisements
Track Severe Weather on mobile